sensor_id;sensor_type;location;lat;lon;timestamp;P1;durP1;ratioP1;P2;durP2;ratioP2
29550;SDS011;16488;52.396;10.696;2022-10-18T00:00:20;35.60;;;22.37;;
29550;SDS011;16488;52.396;10.696;2022-10-18T00:02:46;37.80;;;24.70;;
29550;SDS011;16488;52.396;10.696;2022-10-18T00:05:11;44.10;;;25.33;;
29550;SDS011;16488;52.396;10.696;2022-10-18T00:07:37;40.37;;;25.63;;
29550;SDS011;16488;52.396;10.696;2022-10-18T00:10:03;34.85;;;24.83;;
29550;SDS011;16488;52.396;10.696;2022-10-18T00:14:56;38.05;;;25.15;;
29550;SDS011;16488;52.396;10.696;2022-10-18T00:17:21;48.07;;;27.70;;
29550;SDS011;16488;52.396;10.696;2022-10-18T00:19:47;38.93;;;24.87;;
29550;SDS011;16488;52.396;10.696;2022-10-18T00:22:14;41.58;;;25.55;;
29550;SDS011;16488;52.396;10.696;2022-10-18T00:24:39;40.97;;;26.83;;
29550;SDS011;16488;52.396;10.696;2022-10-18T00:27:05;43.07;;;25.17;;
29550;SDS011;16488;52.396;10.696;2022-10-18T00:29:31;35.67;;;24.00;;
29550;SDS011;16488;52.396;10.696;2022-10-18T00:31:56;41.57;;;24.23;;
29550;SDS011;16488;52.396;10.696;2022-10-18T00:34:22;28.60;;;20.27;;
29550;SDS011;16488;52.396;10.696;2022-10-18T00:36:47;40.28;;;22.95;;
29550;SDS011;16488;52.396;10.696;2022-10-18T00:39:15;35.33;;;23.63;;
29550;SDS011;16488;52.396;10.696;2022-10-18T00:41:42;38.30;;;23.05;;
29550;SDS011;16488;52.396;10.696;2022-10-18T00:46:37;33.70;;;22.90;;
29550;SDS011;16488;52.396;10.696;2022-10-18T00:49:06;30.80;;;19.52;;
29550;SDS011;16488;52.396;10.696;2022-10-18T00:51:49;34.47;;;20.02;;
29550;SDS011;16488;52.396;10.696;2022-10-18T00:54:21;30.63;;;21.40;;
29550;SDS011;16488;52.396;10.696;2022-10-18T00:56:48;31.75;;;22.33;;
29550;SDS011;16488;52.396;10.696;2022-10-18T00:59:14;35.92;;;20.70;;
29550;SDS011;16488;52.396;10.696;2022-10-18T01:01:42;37.55;;;21.13;;
29550;SDS011;16488;52.396;10.696;2022-10-18T01:04:08;29.90;;;21.65;;
29550;SDS011;16488;52.396;10.696;2022-10-18T01:06:37;48.33;;;24.05;;
29550;SDS011;16488;52.396;10.696;2022-10-18T01:09:25;42.67;;;26.55;;
29550;SDS011;16488;52.396;10.696;2022-10-18T01:14:56;47.35;;;28.10;;
29550;SDS011;16488;52.396;10.696;2022-10-18T01:20:52;47.42;;;28.23;;
29550;SDS011;16488;52.396;10.696;2022-10-18T01:32:01;43.38;;;26.08;;
29550;SDS011;16488;52.396;10.696;2022-10-18T01:34:32;40.42;;;26.10;;
29550;SDS011;16488;52.396;10.696;2022-10-18T01:37:00;43.45;;;26.45;;
29550;SDS011;16488;52.396;10.696;2022-10-18T01:39:29;47.13;;;28.98;;
29550;SDS011;16488;52.396;10.696;2022-10-18T01:41:58;53.90;;;29.48;;
29550;SDS011;16488;52.396;10.696;2022-10-18T01:44:27;46.22;;;28.67;;
29550;SDS011;16488;52.396;10.696;2022-10-18T01:46:56;48.22;;;28.17;;
29550;SDS011;16488;52.396;10.696;2022-10-18T01:49:24;43.20;;;27.60;;
29550;SDS011;16488;52.396;10.696;2022-10-18T01:51:50;39.67;;;24.90;;
29550;SDS011;16488;52.396;10.696;2022-10-18T01:54:17;48.42;;;27.70;;
29550;SDS011;16488;52.396;10.696;2022-10-18T02:05:11;41.85;;;26.27;;
29550;SDS011;16488;52.396;10.696;2022-10-18T02:07:43;47.20;;;27.38;;
29550;SDS011;16488;52.396;10.696;2022-10-18T02:10:27;50.13;;;27.60;;
29550;SDS011;16488;52.396;10.696;2022-10-18T02:13:03;41.08;;;25.95;;
29550;SDS011;16488;52.396;10.696;2022-10-18T02:15:31;35.05;;;22.67;;
29550;SDS011;16488;52.396;10.696;2022-10-18T02:17:58;34.85;;;22.67;;
29550;SDS011;16488;52.396;10.696;2022-10-18T02:20:29;43.40;;;25.83;;
29550;SDS011;16488;52.396;10.696;2022-10-18T02:22:56;43.85;;;25.75;;
29550;SDS011;16488;52.396;10.696;2022-10-18T02:25:23;44.30;;;27.20;;
29550;SDS011;16488;52.396;10.696;2022-10-18T02:27:52;44.65;;;27.45;;
29550;SDS011;16488;52.396;10.696;2022-10-18T02:30:20;52.70;;;30.52;;
29550;SDS011;16488;52.396;10.696;2022-10-18T02:33:00;49.03;;;27.00;;
29550;SDS011;16488;52.396;10.696;2022-10-18T02:35:34;48.67;;;28.83;;
29550;SDS011;16488;52.396;10.696;2022-10-18T02:38:03;48.22;;;27.55;;
29550;SDS011;16488;52.396;10.696;2022-10-18T02:40:31;48.53;;;28.95;;
29550;SDS011;16488;52.396;10.696;2022-10-18T02:42:57;53.50;;;30.08;;
29550;SDS011;16488;52.396;10.696;2022-10-18T02:45:23;60.75;;;32.38;;
29550;SDS011;16488;52.396;10.696;2022-10-18T02:47:50;55.63;;;31.85;;
29550;SDS011;16488;52.396;10.696;2022-10-18T02:50:16;57.47;;;31.33;;
29550;SDS011;16488;52.396;10.696;2022-10-18T02:52:42;54.45;;;30.52;;
29550;SDS011;16488;52.396;10.696;2022-10-18T02:55:07;58.30;;;30.97;;
29550;SDS011;16488;52.396;10.696;2022-10-18T02:57:34;58.97;;;31.67;;
29550;SDS011;16488;52.396;10.696;2022-10-18T03:00:00;53.80;;;29.38;;
29550;SDS011;16488;52.396;10.696;2022-10-18T03:02:27;43.45;;;28.42;;
29550;SDS011;16488;52.396;10.696;2022-10-18T03:04:53;41.73;;;25.37;;
29550;SDS011;16488;52.396;10.696;2022-10-18T03:07:18;51.13;;;29.17;;
29550;SDS011;16488;52.396;10.696;2022-10-18T03:09:44;52.73;;;27.97;;
29550;SDS011;16488;52.396;10.696;2022-10-18T03:12:09;55.43;;;30.37;;
29550;SDS011;16488;52.396;10.696;2022-10-18T03:14:35;59.17;;;32.17;;
29550;SDS011;16488;52.396;10.696;2022-10-18T03:17:00;51.37;;;30.47;;
29550;SDS011;16488;52.396;10.696;2022-10-18T03:19:26;45.93;;;27.67;;
29550;SDS011;16488;52.396;10.696;2022-10-18T03:21:51;58.33;;;27.77;;
29550;SDS011;16488;52.396;10.696;2022-10-18T03:24:17;53.70;;;28.33;;
29550;SDS011;16488;52.396;10.696;2022-10-18T03:26:42;54.77;;;28.00;;
29550;SDS011;16488;52.396;10.696;2022-10-18T03:29:08;49.90;;;27.83;;
29550;SDS011;16488;52.396;10.696;2022-10-18T03:31:34;50.08;;;27.23;;
29550;SDS011;16488;52.396;10.696;2022-10-18T03:34:00;55.72;;;27.80;;
29550;SDS011;16488;52.396;10.696;2022-10-18T03:36:26;48.58;;;26.85;;
29550;SDS011;16488;52.396;10.696;2022-10-18T03:38:51;51.70;;;27.10;;
29550;SDS011;16488;52.396;10.696;2022-10-18T03:41:17;48.90;;;26.40;;
29550;SDS011;16488;52.396;10.696;2022-10-18T03:46:09;53.65;;;26.50;;
29550;SDS011;16488;52.396;10.696;2022-10-18T03:48:34;47.53;;;26.43;;
29550;SDS011;16488;52.396;10.696;2022-10-18T03:51:00;51.30;;;27.90;;
29550;SDS011;16488;52.396;10.696;2022-10-18T03:53:25;46.33;;;26.37;;
29550;SDS011;16488;52.396;10.696;2022-10-18T03:55:54;61.77;;;29.97;;
29550;SDS011;16488;52.396;10.696;2022-10-18T03:58:20;59.65;;;29.73;;
29550;SDS011;16488;52.396;10.696;2022-10-18T04:00:53;67.40;;;29.15;;
29550;SDS011;16488;52.396;10.696;2022-10-18T04:03:19;56.80;;;29.30;;
29550;SDS011;16488;52.396;10.696;2022-10-18T04:05:46;48.90;;;28.13;;
29550;SDS011;16488;52.396;10.696;2022-10-18T04:08:12;51.33;;;26.95;;
29550;SDS011;16488;52.396;10.696;2022-10-18T04:10:38;47.03;;;27.33;;
29550;SDS011;16488;52.396;10.696;2022-10-18T04:13:05;50.85;;;26.20;;
29550;SDS011;16488;52.396;10.696;2022-10-18T04:15:31;52.53;;;27.45;;
29550;SDS011;16488;52.396;10.696;2022-10-18T04:17:57;60.38;;;29.35;;
29550;SDS011;16488;52.396;10.696;2022-10-18T04:20:24;58.95;;;28.27;;
29550;SDS011;16488;52.396;10.696;2022-10-18T04:22:50;62.05;;;29.70;;
29550;SDS011;16488;52.396;10.696;2022-10-18T04:25:16;61.47;;;30.08;;
29550;SDS011;16488;52.396;10.696;2022-10-18T04:27:42;67.45;;;31.08;;
29550;SDS011;16488;52.396;10.696;2022-10-18T04:30:08;66.90;;;29.33;;
29550;SDS011;16488;52.396;10.696;2022-10-18T04:32:34;62.63;;;31.13;;
29550;SDS011;16488;52.396;10.696;2022-10-18T04:35:01;67.00;;;31.00;;
29550;SDS011;16488;52.396;10.696;2022-10-18T04:37:27;71.80;;;33.67;;
29550;SDS011;16488;52.396;10.696;2022-10-18T04:39:53;80.80;;;34.45;;
29550;SDS011;16488;52.396;10.696;2022-10-18T04:42:19;73.57;;;33.30;;
29550;SDS011;16488;52.396;10.696;2022-10-18T04:44:45;80.68;;;37.08;;
29550;SDS011;16488;52.396;10.696;2022-10-18T04:47:11;80.18;;;35.72;;
29550;SDS011;16488;52.396;10.696;2022-10-18T04:49:37;81.07;;;36.83;;
29550;SDS011;16488;52.396;10.696;2022-10-18T04:52:03;76.03;;;36.42;;
29550;SDS011;16488;52.396;10.696;2022-10-18T04:54:29;83.03;;;37.25;;
29550;SDS011;16488;52.396;10.696;2022-10-18T04:56:55;87.57;;;35.38;;
29550;SDS011;16488;52.396;10.696;2022-10-18T04:59:21;88.00;;;36.85;;
29550;SDS011;16488;52.396;10.696;2022-10-18T05:01:47;89.50;;;36.63;;
29550;SDS011;16488;52.396;10.696;2022-10-18T05:04:13;89.15;;;39.33;;
29550;SDS011;16488;52.396;10.696;2022-10-18T05:06:39;86.32;;;38.40;;
29550;SDS011;16488;52.396;10.696;2022-10-18T05:09:05;93.47;;;38.65;;
29550;SDS011;16488;52.396;10.696;2022-10-18T05:11:31;92.50;;;40.67;;
29550;SDS011;16488;52.396;10.696;2022-10-18T05:13:57;95.05;;;40.75;;
29550;SDS011;16488;52.396;10.696;2022-10-18T05:16:23;89.68;;;40.40;;
29550;SDS011;16488;52.396;10.696;2022-10-18T05:18:49;99.95;;;40.90;;
29550;SDS011;16488;52.396;10.696;2022-10-18T05:21:15;102.82;;;41.13;;
29550;SDS011;16488;52.396;10.696;2022-10-18T05:26:07;82.43;;;36.83;;
29550;SDS011;16488;52.396;10.696;2022-10-18T05:31:03;81.95;;;35.67;;
29550;SDS011;16488;52.396;10.696;2022-10-18T05:33:29;94.43;;;41.75;;
29550;SDS011;16488;52.396;10.696;2022-10-18T05:38:21;94.75;;;40.95;;
29550;SDS011;16488;52.396;10.696;2022-10-18T05:40:47;93.93;;;39.72;;
29550;SDS011;16488;52.396;10.696;2022-10-18T05:43:13;91.53;;;41.88;;
29550;SDS011;16488;52.396;10.696;2022-10-18T05:45:39;101.45;;;43.15;;
29550;SDS011;16488;52.396;10.696;2022-10-18T05:48:11;98.72;;;41.85;;
29550;SDS011;16488;52.396;10.696;2022-10-18T05:50:37;101.95;;;44.92;;
29550;SDS011;16488;52.396;10.696;2022-10-18T05:53:03;85.90;;;41.72;;
29550;SDS011;16488;52.396;10.696;2022-10-18T05:55:29;99.30;;;42.95;;
29550;SDS011;16488;52.396;10.696;2022-10-18T05:57:55;87.05;;;38.60;;
29550;SDS011;16488;52.396;10.696;2022-10-18T06:00:20;94.70;;;43.10;;
29550;SDS011;16488;52.396;10.696;2022-10-18T06:02:46;88.88;;;41.03;;
29550;SDS011;16488;52.396;10.696;2022-10-18T06:05:13;97.95;;;42.70;;
29550;SDS011;16488;52.396;10.696;2022-10-18T06:07:40;97.10;;;43.60;;
29550;SDS011;16488;52.396;10.696;2022-10-18T06:10:07;94.82;;;41.90;;
29550;SDS011;16488;52.396;10.696;2022-10-18T06:12:33;103.43;;;41.33;;
29550;SDS011;16488;52.396;10.696;2022-10-18T06:15:00;98.95;;;41.70;;
29550;SDS011;16488;52.396;10.696;2022-10-18T06:17:28;97.55;;;43.10;;
29550;SDS011;16488;52.396;10.696;2022-10-18T06:19:54;86.95;;;41.28;;
29550;SDS011;16488;52.396;10.696;2022-10-18T06:22:20;109.20;;;42.65;;
29550;SDS011;16488;52.396;10.696;2022-10-18T06:24:46;89.32;;;41.30;;
29550;SDS011;16488;52.396;10.696;2022-10-18T06:27:13;95.72;;;43.97;;
29550;SDS011;16488;52.396;10.696;2022-10-18T06:29:39;85.25;;;40.75;;
29550;SDS011;16488;52.396;10.696;2022-10-18T06:32:06;94.55;;;42.55;;
29550;SDS011;16488;52.396;10.696;2022-10-18T06:34:32;88.95;;;41.55;;
29550;SDS011;16488;52.396;10.696;2022-10-18T06:36:58;82.57;;;40.10;;
29550;SDS011;16488;52.396;10.696;2022-10-18T06:39:24;91.45;;;43.72;;
29550;SDS011;16488;52.396;10.696;2022-10-18T06:41:50;79.15;;;39.33;;
29550;SDS011;16488;52.396;10.696;2022-10-18T06:44:17;90.25;;;42.33;;
29550;SDS011;16488;52.396;10.696;2022-10-18T06:46:43;89.07;;;40.28;;
29550;SDS011;16488;52.396;10.696;2022-10-18T06:49:10;93.38;;;40.15;;
29550;SDS011;16488;52.396;10.696;2022-10-18T06:51:36;99.10;;;41.28;;
29550;SDS011;16488;52.396;10.696;2022-10-18T06:54:02;92.57;;;41.67;;
29550;SDS011;16488;52.396;10.696;2022-10-18T06:56:28;92.45;;;40.13;;
29550;SDS011;16488;52.396;10.696;2022-10-18T06:58:54;91.10;;;41.53;;
29550;SDS011;16488;52.396;10.696;2022-10-18T07:01:20;89.88;;;41.47;;
29550;SDS011;16488;52.396;10.696;2022-10-18T07:03:47;101.05;;;43.83;;
29550;SDS011;16488;52.396;10.696;2022-10-18T07:06:15;100.05;;;42.75;;
29550;SDS011;16488;52.396;10.696;2022-10-18T07:08:41;88.03;;;40.33;;
29550;SDS011;16488;52.396;10.696;2022-10-18T07:11:07;95.47;;;42.28;;
29550;SDS011;16488;52.396;10.696;2022-10-18T07:13:33;85.70;;;38.38;;
29550;SDS011;16488;52.396;10.696;2022-10-18T07:16:00;94.05;;;41.90;;
29550;SDS011;16488;52.396;10.696;2022-10-18T07:18:26;89.78;;;38.70;;
29550;SDS011;16488;52.396;10.696;2022-10-18T07:20:53;83.65;;;38.97;;
29550;SDS011;16488;52.396;10.696;2022-10-18T07:23:19;75.20;;;36.58;;
29550;SDS011;16488;52.396;10.696;2022-10-18T07:25:47;71.22;;;36.33;;
29550;SDS011;16488;52.396;10.696;2022-10-18T07:28:13;78.93;;;38.90;;
29550;SDS011;16488;52.396;10.696;2022-10-18T07:30:39;91.20;;;39.22;;
29550;SDS011;16488;52.396;10.696;2022-10-18T07:33:05;79.93;;;39.67;;
29550;SDS011;16488;52.396;10.696;2022-10-18T07:35:31;81.47;;;37.65;;
29550;SDS011;16488;52.396;10.696;2022-10-18T07:37:57;75.65;;;36.90;;
29550;SDS011;16488;52.396;10.696;2022-10-18T07:40:23;67.55;;;36.50;;
29550;SDS011;16488;52.396;10.696;2022-10-18T07:45:15;82.18;;;37.88;;
29550;SDS011;16488;52.396;10.696;2022-10-18T07:47:41;85.72;;;37.72;;
29550;SDS011;16488;52.396;10.696;2022-10-18T07:50:07;75.38;;;37.00;;
29550;SDS011;16488;52.396;10.696;2022-10-18T07:52:33;90.07;;;40.45;;
29550;SDS011;16488;52.396;10.696;2022-10-18T07:54:59;85.75;;;38.03;;
29550;SDS011;16488;52.396;10.696;2022-10-18T07:57:25;105.03;;;42.75;;
29550;SDS011;16488;52.396;10.696;2022-10-18T07:59:51;100.47;;;39.90;;
29550;SDS011;16488;52.396;10.696;2022-10-18T08:02:21;90.45;;;41.65;;
29550;SDS011;16488;52.396;10.696;2022-10-18T08:04:47;92.57;;;39.42;;
29550;SDS011;16488;52.396;10.696;2022-10-18T08:07:13;90.65;;;40.13;;
29550;SDS011;16488;52.396;10.696;2022-10-18T08:09:39;96.32;;;40.17;;
29550;SDS011;16488;52.396;10.696;2022-10-18T08:12:05;91.80;;;41.58;;
29550;SDS011;16488;52.396;10.696;2022-10-18T08:14:31;96.28;;;42.35;;
29550;SDS011;16488;52.396;10.696;2022-10-18T08:16:57;99.05;;;41.10;;
29550;SDS011;16488;52.396;10.696;2022-10-18T08:19:23;113.82;;;44.33;;
29550;SDS011;16488;52.396;10.696;2022-10-18T08:21:49;95.18;;;40.95;;
29550;SDS011;16488;52.396;10.696;2022-10-18T08:24:15;100.57;;;42.60;;
29550;SDS011;16488;52.396;10.696;2022-10-18T08:26:43;87.53;;;41.30;;
29550;SDS011;16488;52.396;10.696;2022-10-18T08:29:09;84.65;;;39.33;;
29550;SDS011;16488;52.396;10.696;2022-10-18T08:31:35;97.85;;;42.22;;
29550;SDS011;16488;52.396;10.696;2022-10-18T08:34:02;87.13;;;40.70;;
29550;SDS011;16488;52.396;10.696;2022-10-18T08:36:28;94.72;;;41.47;;
29550;SDS011;16488;52.396;10.696;2022-10-18T08:38:54;93.13;;;42.03;;
29550;SDS011;16488;52.396;10.696;2022-10-18T08:44:19;94.70;;;44.20;;
29550;SDS011;16488;52.396;10.696;2022-10-18T08:49:20;97.10;;;42.47;;
29550;SDS011;16488;52.396;10.696;2022-10-18T08:51:47;102.72;;;42.83;;
29550;SDS011;16488;52.396;10.696;2022-10-18T08:54:15;91.85;;;41.72;;
29550;SDS011;16488;52.396;10.696;2022-10-18T08:56:44;91.85;;;41.97;;
29550;SDS011;16488;52.396;10.696;2022-10-18T08:59:11;84.75;;;41.33;;
29550;SDS011;16488;52.396;10.696;2022-10-18T09:01:44;84.13;;;40.97;;
29550;SDS011;16488;52.396;10.696;2022-10-18T09:17:21;78.75;;;39.60;;
29550;SDS011;16488;52.396;10.696;2022-10-18T09:25:23;80.63;;;38.70;;
29550;SDS011;16488;52.396;10.696;2022-10-18T09:27:52;81.70;;;38.28;;
29550;SDS011;16488;52.396;10.696;2022-10-18T09:33:07;76.15;;;38.90;;
29550;SDS011;16488;52.396;10.696;2022-10-18T09:38:08;74.07;;;37.83;;
29550;SDS011;16488;52.396;10.696;2022-10-18T09:40:37;71.32;;;38.80;;
29550;SDS011;16488;52.396;10.696;2022-10-18T09:43:10;74.90;;;36.33;;
29550;SDS011;16488;52.396;10.696;2022-10-18T09:45:39;76.78;;;37.95;;
29550;SDS011;16488;52.396;10.696;2022-10-18T09:48:20;75.30;;;39.58;;
29550;SDS011;16488;52.396;10.696;2022-10-18T09:50:53;78.00;;;39.45;;
29550;SDS011;16488;52.396;10.696;2022-10-18T09:53:29;76.85;;;39.42;;
29550;SDS011;16488;52.396;10.696;2022-10-18T09:56:01;72.45;;;37.10;;
29550;SDS011;16488;52.396;10.696;2022-10-18T09:58:32;78.10;;;37.85;;
29550;SDS011;16488;52.396;10.696;2022-10-18T10:01:03;80.85;;;40.97;;
29550;SDS011;16488;52.396;10.696;2022-10-18T10:03:29;73.65;;;40.63;;
29550;SDS011;16488;52.396;10.696;2022-10-18T10:06:13;77.68;;;40.80;;
29550;SDS011;16488;52.396;10.696;2022-10-18T10:08:40;80.43;;;41.85;;
29550;SDS011;16488;52.396;10.696;2022-10-18T10:11:29;83.75;;;41.28;;
29550;SDS011;16488;52.396;10.696;2022-10-18T10:14:12;71.57;;;39.70;;
29550;SDS011;16488;52.396;10.696;2022-10-18T10:16:45;77.13;;;40.08;;
29550;SDS011;16488;52.396;10.696;2022-10-18T10:19:23;67.15;;;36.30;;
29550;SDS011;16488;52.396;10.696;2022-10-18T10:21:49;69.18;;;35.05;;
29550;SDS011;16488;52.396;10.696;2022-10-18T10:24:31;68.18;;;36.33;;
29550;SDS011;16488;52.396;10.696;2022-10-18T10:27:02;66.95;;;34.60;;
29550;SDS011;16488;52.396;10.696;2022-10-18T10:32:14;62.10;;;33.95;;
29550;SDS011;16488;52.396;10.696;2022-10-18T10:34:41;66.57;;;34.38;;
29550;SDS011;16488;52.396;10.696;2022-10-18T10:37:40;47.25;;;28.02;;
29550;SDS011;16488;52.396;10.696;2022-10-18T10:40:17;56.00;;;29.55;;
29550;SDS011;16488;52.396;10.696;2022-10-18T10:42:50;49.35;;;28.88;;
29550;SDS011;16488;52.396;10.696;2022-10-18T10:45:18;62.85;;;32.83;;
29550;SDS011;16488;52.396;10.696;2022-10-18T10:47:44;59.00;;;33.08;;
29550;SDS011;16488;52.396;10.696;2022-10-18T10:50:11;72.25;;;35.25;;
29550;SDS011;16488;52.396;10.696;2022-10-18T10:52:38;69.07;;;36.80;;
29550;SDS011;16488;52.396;10.696;2022-10-18T10:55:05;72.95;;;38.33;;
29550;SDS011;16488;52.396;10.696;2022-10-18T10:57:41;69.95;;;37.22;;
29550;SDS011;16488;52.396;10.696;2022-10-18T11:00:29;65.25;;;36.38;;
29550;SDS011;16488;52.396;10.696;2022-10-18T11:03:03;69.28;;;35.65;;
29550;SDS011;16488;52.396;10.696;2022-10-18T11:05:29;63.28;;;34.60;;
29550;SDS011;16488;52.396;10.696;2022-10-18T11:07:57;61.40;;;34.47;;
29550;SDS011;16488;52.396;10.696;2022-10-18T11:10:25;55.95;;;33.03;;
29550;SDS011;16488;52.396;10.696;2022-10-18T11:12:56;55.83;;;32.88;;
29550;SDS011;16488;52.396;10.696;2022-10-18T11:15:34;57.63;;;33.88;;
29550;SDS011;16488;52.396;10.696;2022-10-18T11:20:47;52.20;;;31.92;;
29550;SDS011;16488;52.396;10.696;2022-10-18T11:23:14;48.75;;;29.20;;
29550;SDS011;16488;52.396;10.696;2022-10-18T11:28:56;49.38;;;26.90;;
29550;SDS011;16488;52.396;10.696;2022-10-18T11:36:26;45.00;;;23.85;;
29550;SDS011;16488;52.396;10.696;2022-10-18T11:38:55;39.30;;;22.98;;
29550;SDS011;16488;52.396;10.696;2022-10-18T11:41:29;31.05;;;19.48;;
29550;SDS011;16488;52.396;10.696;2022-10-18T11:49:00;26.85;;;18.20;;
29550;SDS011;16488;52.396;10.696;2022-10-18T11:54:00;35.38;;;17.85;;
29550;SDS011;16488;52.396;10.696;2022-10-18T12:01:43;17.42;;;10.73;;
29550;SDS011;16488;52.396;10.696;2022-10-18T12:04:16;18.13;;;8.70;;
29550;SDS011;16488;52.396;10.696;2022-10-18T12:06:44;20.45;;;8.55;;
29550;SDS011;16488;52.396;10.696;2022-10-18T12:12:02;20.20;;;9.35;;
29550;SDS011;16488;52.396;10.696;2022-10-18T12:14:35;19.15;;;8.98;;
29550;SDS011;16488;52.396;10.696;2022-10-18T12:17:04;18.67;;;9.75;;
29550;SDS011;16488;52.396;10.696;2022-10-18T12:19:32;22.35;;;10.70;;
29550;SDS011;16488;52.396;10.696;2022-10-18T12:22:22;24.45;;;10.25;;
29550;SDS011;16488;52.396;10.696;2022-10-18T12:24:45;21.23;;;8.75;;
29550;SDS011;16488;52.396;10.696;2022-10-18T12:27:12;16.55;;;7.47;;
29550;SDS011;16488;52.396;10.696;2022-10-18T12:29:41;30.58;;;8.43;;
29550;SDS011;16488;52.396;10.696;2022-10-18T12:32:13;20.00;;;8.48;;
29550;SDS011;16488;52.396;10.696;2022-10-18T12:39:50;17.67;;;8.45;;
29550;SDS011;16488;52.396;10.696;2022-10-18T12:42:19;15.18;;;8.02;;
29550;SDS011;16488;52.396;10.696;2022-10-18T12:44:46;15.60;;;7.50;;
29550;SDS011;16488;52.396;10.696;2022-10-18T12:49:38;16.73;;;6.68;;
29550;SDS011;16488;52.396;10.696;2022-10-18T12:52:05;26.38;;;7.68;;
29550;SDS011;16488;52.396;10.696;2022-10-18T12:54:33;17.20;;;6.50;;
29550;SDS011;16488;52.396;10.696;2022-10-18T12:57:00;14.68;;;5.30;;
29550;SDS011;16488;52.396;10.696;2022-10-18T13:09:39;12.80;;;4.80;;
29550;SDS011;16488;52.396;10.696;2022-10-18T13:14:56;17.27;;;4.82;;
29550;SDS011;16488;52.396;10.696;2022-10-18T13:17:28;19.73;;;4.85;;
29550;SDS011;16488;52.396;10.696;2022-10-18T13:28:35;14.18;;;4.82;;
29550;SDS011;16488;52.396;10.696;2022-10-18T13:33:48;11.20;;;4.70;;
29550;SDS011;16488;52.396;10.696;2022-10-18T13:36:21;11.57;;;4.50;;
29550;SDS011;16488;52.396;10.696;2022-10-18T13:41:22;24.50;;;5.72;;
29550;SDS011;16488;52.396;10.696;2022-10-18T13:46:20;11.73;;;4.85;;
29550;SDS011;16488;52.396;10.696;2022-10-18T13:48:47;15.38;;;5.97;;
29550;SDS011;16488;52.396;10.696;2022-10-18T13:54:14;12.32;;;4.47;;
29550;SDS011;16488;52.396;10.696;2022-10-18T13:56:54;12.83;;;4.03;;
29550;SDS011;16488;52.396;10.696;2022-10-18T14:06:57;13.00;;;4.82;;
29550;SDS011;16488;52.396;10.696;2022-10-18T14:09:25;11.00;;;3.85;;
29550;SDS011;16488;52.396;10.696;2022-10-18T14:12:00;23.60;;;4.15;;
29550;SDS011;16488;52.396;10.696;2022-10-18T14:14:32;11.98;;;3.33;;
29550;SDS011;16488;52.396;10.696;2022-10-18T14:17:03;9.45;;;3.40;;
29550;SDS011;16488;52.396;10.696;2022-10-18T14:19:37;6.05;;;3.53;;
29550;SDS011;16488;52.396;10.696;2022-10-18T14:22:11;10.32;;;3.67;;
29550;SDS011;16488;52.396;10.696;2022-10-18T14:24:39;11.85;;;3.28;;
29550;SDS011;16488;52.396;10.696;2022-10-18T14:27:14;14.02;;;3.83;;
29550;SDS011;16488;52.396;10.696;2022-10-18T14:29:48;12.05;;;3.38;;
29550;SDS011;16488;52.396;10.696;2022-10-18T14:32:21;10.38;;;3.65;;
29550;SDS011;16488;52.396;10.696;2022-10-18T14:34:47;12.60;;;3.15;;
29550;SDS011;16488;52.396;10.696;2022-10-18T14:37:19;13.27;;;4.13;;
29550;SDS011;16488;52.396;10.696;2022-10-18T14:39:46;9.75;;;2.75;;
29550;SDS011;16488;52.396;10.696;2022-10-18T14:42:18;10.15;;;2.95;;
29550;SDS011;16488;52.396;10.696;2022-10-18T14:44:46;8.07;;;2.00;;
29550;SDS011;16488;52.396;10.696;2022-10-18T14:47:26;9.48;;;2.30;;
29550;SDS011;16488;52.396;10.696;2022-10-18T14:49:55;11.05;;;2.30;;
29550;SDS011;16488;52.396;10.696;2022-10-18T14:52:31;8.10;;;2.35;;
29550;SDS011;16488;52.396;10.696;2022-10-18T14:55:00;7.65;;;2.60;;
29550;SDS011;16488;52.396;10.696;2022-10-18T14:57:27;7.70;;;2.42;;
29550;SDS011;16488;52.396;10.696;2022-10-18T14:59:55;7.68;;;2.95;;
29550;SDS011;16488;52.396;10.696;2022-10-18T15:02:23;7.05;;;2.83;;
29550;SDS011;16488;52.396;10.696;2022-10-18T15:05:05;8.70;;;2.90;;
29550;SDS011;16488;52.396;10.696;2022-10-18T15:07:32;8.23;;;2.78;;
29550;SDS011;16488;52.396;10.696;2022-10-18T15:09:58;5.97;;;2.25;;
29550;SDS011;16488;52.396;10.696;2022-10-18T15:12:25;7.35;;;3.50;;
29550;SDS011;16488;52.396;10.696;2022-10-18T15:14:58;8.85;;;3.13;;
29550;SDS011;16488;52.396;10.696;2022-10-18T15:17:25;10.73;;;3.40;;
29550;SDS011;16488;52.396;10.696;2022-10-18T15:22:21;10.00;;;3.35;;
29550;SDS011;16488;52.396;10.696;2022-10-18T15:25:02;13.38;;;4.28;;
29550;SDS011;16488;52.396;10.696;2022-10-18T15:27:30;12.38;;;4.07;;
29550;SDS011;16488;52.396;10.696;2022-10-18T15:29:56;8.48;;;3.58;;
29550;SDS011;16488;52.396;10.696;2022-10-18T15:32:29;10.95;;;4.45;;
29550;SDS011;16488;52.396;10.696;2022-10-18T15:35:05;8.98;;;4.22;;
29550;SDS011;16488;52.396;10.696;2022-10-18T15:37:40;11.23;;;4.65;;
29550;SDS011;16488;52.396;10.696;2022-10-18T15:42:42;14.70;;;4.40;;
29550;SDS011;16488;52.396;10.696;2022-10-18T15:45:51;12.15;;;4.30;;
29550;SDS011;16488;52.396;10.696;2022-10-18T15:55:46;16.60;;;5.38;;
29550;SDS011;16488;52.396;10.696;2022-10-18T16:00:38;10.32;;;4.22;;
29550;SDS011;16488;52.396;10.696;2022-10-18T16:03:06;8.95;;;4.50;;
29550;SDS011;16488;52.396;10.696;2022-10-18T16:05:32;8.98;;;4.30;;
29550;SDS011;16488;52.396;10.696;2022-10-18T16:07:58;9.50;;;3.80;;
29550;SDS011;16488;52.396;10.696;2022-10-18T16:10:24;14.23;;;4.68;;
29550;SDS011;16488;52.396;10.696;2022-10-18T16:12:50;17.88;;;3.30;;
29550;SDS011;16488;52.396;10.696;2022-10-18T16:15:16;16.60;;;6.22;;
29550;SDS011;16488;52.396;10.696;2022-10-18T16:17:42;7.63;;;3.40;;
29550;SDS011;16488;52.396;10.696;2022-10-18T16:20:17;10.40;;;4.07;;
29550;SDS011;16488;52.396;10.696;2022-10-18T16:22:44;17.20;;;3.73;;
29550;SDS011;16488;52.396;10.696;2022-10-18T16:25:10;10.93;;;3.42;;
29550;SDS011;16488;52.396;10.696;2022-10-18T16:27:36;14.40;;;4.10;;
29550;SDS011;16488;52.396;10.696;2022-10-18T16:30:07;14.38;;;3.42;;
29550;SDS011;16488;52.396;10.696;2022-10-18T16:32:35;16.77;;;4.00;;
29550;SDS011;16488;52.396;10.696;2022-10-18T16:35:01;19.58;;;3.42;;
29550;SDS011;16488;52.396;10.696;2022-10-18T16:37:27;16.70;;;4.40;;
29550;SDS011;16488;52.396;10.696;2022-10-18T16:39:53;15.35;;;3.70;;
29550;SDS011;16488;52.396;10.696;2022-10-18T16:42:19;9.30;;;3.70;;
29550;SDS011;16488;52.396;10.696;2022-10-18T16:44:45;11.15;;;3.40;;
29550;SDS011;16488;52.396;10.696;2022-10-18T16:47:12;14.07;;;4.70;;
29550;SDS011;16488;52.396;10.696;2022-10-18T16:49:38;12.77;;;4.50;;
29550;SDS011;16488;52.396;10.696;2022-10-18T16:52:04;6.65;;;3.65;;
29550;SDS011;16488;52.396;10.696;2022-10-18T16:54:30;10.68;;;2.95;;
29550;SDS011;16488;52.396;10.696;2022-10-18T16:59:26;9.63;;;3.20;;
29550;SDS011;16488;52.396;10.696;2022-10-18T17:01:53;13.45;;;3.70;;
29550;SDS011;16488;52.396;10.696;2022-10-18T17:04:19;20.75;;;3.97;;